Time;durP1;ratioP1;P1;durP2;ratioP2;P2;SDS_P1;SDS_P2;PMS_P1;PMS_P2;Temp;Humidity;BMP_temperature;BMP_pressure;BME280_temperature;BME280_humidity;BME280_pressure;Samples;Min_cycle;Max_cycle;Signal;HPM_P1;HPM_P2
2021/09/18 00:01:19;;;;;;;6.53;1.92;;;;;;;12.60;100.00;101451.91;4998309;28;20059;-82
2021/09/18 00:03:44;;;;;;;3.30;1.85;;;;;;;12.55;100.00;101444.47;4970609;28;20174;-84
2021/09/18 00:06:10;;;;;;;4.30;2.50;;;;;;;12.61;100.00;101456.22;4957153;28;20793;-85
2021/09/18 00:08:36;;;;;;;5.60;2.80;;;;;;;12.68;100.00;101454.69;4981253;28;20129;-83
2021/09/18 00:11:01;;;;;;;5.03;2.70;;;;;;;12.75;100.00;101461.03;4965187;28;20407;-84
2021/09/18 00:13:27;;;;;;;6.78;2.53;;;;;;;12.74;100.00;101456.75;4974628;28;20125;-90
2021/09/18 00:15:53;;;;;;;5.85;2.35;;;;;;;12.74;100.00;101455.91;4965276;28;20030;-86
2021/09/18 00:18:18;;;;;;;4.22;2.63;;;;;;;12.74;100.00;101462.00;4982232;28;20042;-87
2021/09/18 00:20:44;;;;;;;3.42;2.70;;;;;;;12.73;100.00;101459.50;4966273;28;20109;-88
2021/09/18 00:23:09;;;;;;;5.35;2.33;;;;;;;12.67;100.00;101468.81;4986643;28;20035;-86
2021/09/18 00:25:35;;;;;;;4.90;2.35;;;;;;;12.70;100.00;101465.91;4964288;28;20116;-86
2021/09/18 00:28:00;;;;;;;5.80;4.13;;;;;;;12.73;100.00;101467.41;4977015;28;20392;-85
2021/09/18 00:30:26;;;;;;;5.32;3.83;;;;;;;12.73;100.00;101465.59;4982461;28;20821;-87
2021/09/18 00:32:52;;;;;;;5.85;3.95;;;;;;;12.79;100.00;101458.94;4981988;28;20034;-84
2021/09/18 00:35:17;;;;;;;5.00;3.50;;;;;;;12.73;100.00;101462.97;4967156;28;20142;-86
2021/09/18 00:37:43;;;;;;;7.22;4.60;;;;;;;12.84;100.00;101468.06;4969271;28;20472;-83
2021/09/18 00:40:09;;;;;;;6.57;4.50;;;;;;;12.71;100.00;101467.53;4974127;28;20029;-87
2021/09/18 00:42:35;;;;;;;8.18;4.07;;;;;;;12.60;100.00;101463.28;4981959;28;20034;-86
2021/09/18 00:45:00;;;;;;;7.75;3.95;;;;;;;12.71;100.00;101470.16;4968279;28;20026;-84
2021/09/18 00:47:26;;;;;;;7.93;4.00;;;;;;;12.70;100.00;101470.34;4986283;28;20172;-87
2021/09/18 00:49:52;;;;;;;5.78;3.38;;;;;;;12.61;100.00;101475.47;4963616;28;20037;-87
2021/09/18 00:52:19;;;;;;;6.25;4.25;;;;;;;12.59;100.00;101472.16;4958949;28;20030;-86
2021/09/18 00:54:49;;;;;;;6.13;3.50;;;;;;;12.61;100.00;101478.09;4979285;28;20353;-85
2021/09/18 00:57:18;;;;;;;4.50;3.78;;;;;;;12.63;100.00;101470.88;4995666;28;20184;-87
2021/09/18 00:59:44;;;;;;;6.72;4.32;;;;;;;12.63;100.00;101467.44;4964045;28;20044;-83
2021/09/18 01:02:10;;;;;;;8.75;4.70;;;;;;;12.65;100.00;101466.31;4985785;28;20030;-86
2021/09/18 01:04:37;;;;;;;6.97;5.28;;;;;;;12.64;100.00;101466.47;4995771;28;20029;-85
2021/09/18 01:07:03;;;;;;;8.52;6.07;;;;;;;12.69;100.00;101468.66;4972390;28;20635;-85
2021/09/18 01:09:31;;;;;;;7.65;6.03;;;;;;;12.71;100.00;101464.91;4980668;28;20062;-84
2021/09/18 01:11:57;;;;;;;7.70;5.45;;;;;;;12.68;100.00;101467.00;4964447;28;20036;-85
2021/09/18 01:14:22;;;;;;;7.70;5.15;;;;;;;12.68;100.00;101464.38;4946851;28;20121;-84
2021/09/18 01:16:48;;;;;;;6.85;5.43;;;;;;;12.66;100.00;101470.63;4976900;28;20511;-83
2021/09/18 01:19:13;;;;;;;7.68;5.00;;;;;;;12.57;100.00;101460.94;4945246;28;20030;-85
2021/09/18 01:21:39;;;;;;;5.85;4.57;;;;;;;12.64;100.00;101471.75;4989025;28;20038;-84
2021/09/18 01:24:05;;;;;;;9.10;5.20;;;;;;;12.66;100.00;101472.44;4963485;28;20153;-84
2021/09/18 01:26:38;;;;;;;7.10;4.35;;;;;;;12.63;100.00;101473.53;4953939;28;20125;-84
2021/09/18 01:29:05;;;;;;;10.05;5.10;;;;;;;12.66;100.00;101475.06;4970121;28;20496;-83
2021/09/18 01:31:39;;;;;;;7.72;4.68;;;;;;;12.66;100.00;101478.50;4975853;28;20034;-83
2021/09/18 01:34:05;;;;;;;7.47;5.00;;;;;;;12.63;100.00;101483.22;4969750;28;20570;-82
2021/09/18 01:36:31;;;;;;;10.10;4.50;;;;;;;12.65;100.00;101478.66;4988431;28;20026;-84
2021/09/18 01:38:56;;;;;;;7.32;4.07;;;;;;;12.58;100.00;101475.78;4961536;28;20060;-84
2021/09/18 01:41:22;;;;;;;6.82;5.20;;;;;;;12.63;100.00;101480.59;4958201;28;20041;-84
2021/09/18 01:43:47;;;;;;;9.48;5.40;;;;;;;12.67;100.00;101481.97;4977342;28;20042;-84
2021/09/18 01:46:13;;;;;;;9.00;5.47;;;;;;;12.68;100.00;101482.78;4978248;28;20040;-83
2021/09/18 01:48:38;;;;;;;8.70;5.63;;;;;;;12.66;100.00;101483.78;4979767;28;20045;-84
2021/09/18 01:51:09;;;;;;;11.25;5.57;;;;;;;12.68;100.00;101488.91;4961777;28;20041;-82
2021/09/18 01:53:35;;;;;;;9.70;5.38;;;;;;;12.59;100.00;101479.22;4974021;28;20034;-83
2021/09/18 01:56:01;;;;;;;8.02;5.80;;;;;;;12.61;100.00;101482.53;4962979;28;20045;-80
2021/09/18 01:58:26;;;;;;;9.70;6.00;;;;;;;12.60;100.00;101481.72;4979437;28;20035;-83
2021/09/18 02:00:54;;;;;;;11.35;6.57;;;;;;;12.53;100.00;101467.47;4963526;28;20026;-80
2021/09/18 02:03:20;;;;;;;8.38;5.97;;;;;;;12.56;100.00;101479.50;4979683;28;20049;-82
2021/09/18 02:05:46;;;;;;;10.15;6.00;;;;;;;12.57;100.00;101482.00;4979395;28;20042;-83
2021/09/18 02:08:12;;;;;;;9.05;6.57;;;;;;;12.55;100.00;101475.22;4963778;28;20037;-84
2021/09/18 02:10:38;;;;;;;11.07;7.03;;;;;;;12.57;100.00;101484.63;4992481;28;20042;-82
2021/09/18 02:13:07;;;;;;;8.82;7.07;;;;;;;12.62;100.00;101485.03;4988378;28;20041;-81
2021/09/18 02:15:33;;;;;;;13.00;8.45;;;;;;;12.55;100.00;101491.00;4980437;28;20037;-82
2021/09/18 02:17:59;;;;;;;24.17;7.88;;;;;;;12.52;100.00;101486.84;4983388;28;20058;-83
2021/09/18 02:20:30;;;;;;;12.68;7.63;;;;;;;12.49;100.00;101481.88;4990950;28;20062;-78
2021/09/18 02:22:56;;;;;;;12.10;8.48;;;;;;;12.40;100.00;101473.00;4968559;28;20571;-82
2021/09/18 02:25:22;;;;;;;13.75;8.77;;;;;;;12.48;100.00;101482.00;4980311;28;20041;-83
2021/09/18 02:27:48;;;;;;;13.93;8.10;;;;;;;12.49;100.00;101483.66;4996001;28;20037;-84
2021/09/18 02:30:17;;;;;;;11.52;8.70;;;;;;;12.48;100.00;101480.19;4963391;28;20496;-81
2021/09/18 02:32:45;;;;;;;11.10;8.18;;;;;;;12.45;100.00;101483.97;4983802;28;20071;-83
2021/09/18 02:35:13;;;;;;;10.88;8.38;;;;;;;12.45;100.00;101485.72;4962288;28;20037;-84
2021/09/18 02:37:39;;;;;;;12.90;8.95;;;;;;;12.50;100.00;101486.16;4978741;28;20061;-86
2021/09/18 02:40:07;;;;;;;12.40;8.88;;;;;;;12.49;100.00;101487.13;4977970;28;20061;-82
2021/09/18 02:42:34;;;;;;;12.70;9.05;;;;;;;12.43;100.00;101487.69;4973869;28;20075;-83
2021/09/18 02:44:59;;;;;;;12.45;8.85;;;;;;;12.45;100.00;101486.59;5012554;28;20034;-84
2021/09/18 02:47:25;;;;;;;11.60;8.48;;;;;;;12.42;100.00;101486.84;4980107;28;20037;-82
2021/09/18 02:49:51;;;;;;;14.55;9.23;;;;;;;12.43;100.00;101480.63;4967701;28;20038;-84
2021/09/18 02:52:16;;;;;;;14.10;9.18;;;;;;;12.45;100.00;101486.59;4966382;28;20065;-85
2021/09/18 02:54:42;;;;;;;14.18;9.35;;;;;;;12.48;100.00;101489.91;4995319;28;20496;-85
2021/09/18 02:57:07;;;;;;;18.55;9.63;;;;;;;12.44;100.00;101487.53;4974965;28;20080;-84
2021/09/18 02:59:33;;;;;;;15.15;9.18;;;;;;;12.43;100.00;101479.78;4990993;28;20034;-79
2021/09/18 03:01:58;;;;;;;13.93;9.65;;;;;;;12.42;100.00;101478.97;5008902;28;20058;-82
2021/09/18 03:04:24;;;;;;;13.00;9.98;;;;;;;12.48;100.00;101485.47;4977336;28;20087;-85
2021/09/18 03:06:49;;;;;;;15.20;9.95;;;;;;;12.42;100.00;101486.03;4970433;28;20034;-83
2021/09/18 03:09:15;;;;;;;12.75;9.60;;;;;;;12.46;100.00;101485.59;4975942;28;20513;-84
2021/09/18 03:11:40;;;;;;;15.05;10.73;;;;;;;12.44;100.00;101492.81;4974193;28;20043;-83
2021/09/18 03:14:06;;;;;;;13.10;9.80;;;;;;;12.43;100.00;101488.53;4963135;28;20124;-82
2021/09/18 03:16:32;;;;;;;16.73;10.27;;;;;;;12.48;100.00;101484.63;4978840;28;20045;-84
2021/09/18 03:18:57;;;;;;;16.77;9.90;;;;;;;12.42;100.00;101484.22;4995228;28;20072;-83
2021/09/18 03:21:23;;;;;;;12.90;9.45;;;;;;;12.40;100.00;101485.34;4979010;28;20511;-83
2021/09/18 03:23:48;;;;;;;14.50;9.82;;;;;;;12.41;100.00;101479.09;4992666;28;20045;-84
2021/09/18 03:26:14;;;;;;;15.95;9.07;;;;;;;12.40;100.00;101474.81;4957405;28;20041;-84
2021/09/18 03:28:39;;;;;;;16.05;9.63;;;;;;;12.37;100.00;101481.19;4995152;28;20170;-84
2021/09/18 03:31:05;;;;;;;14.93;9.93;;;;;;;12.45;100.00;101483.97;4970866;28;20034;-82
2021/09/18 03:33:31;;;;;;;17.02;9.73;;;;;;;12.49;100.00;101481.88;4973204;28;20566;-82
2021/09/18 03:35:57;;;;;;;11.30;8.60;;;;;;;12.48;100.00;101484.63;4962916;28;20069;-83
2021/09/18 03:38:22;;;;;;;13.40;8.73;;;;;;;12.46;100.00;101484.78;4979133;28;20038;-84
2021/09/18 03:40:48;;;;;;;12.35;9.45;;;;;;;12.44;100.00;101491.97;4994800;28;20103;-83
2021/09/18 03:43:13;;;;;;;13.43;9.32;;;;;;;12.44;100.00;101490.16;4964896;28;20034;-85
2021/09/18 03:45:39;;;;;;;12.88;9.60;;;;;;;12.44;100.00;101494.63;4959416;28;20121;-83
2021/09/18 03:48:04;;;;;;;13.68;9.30;;;;;;;12.37;100.00;101482.97;4970727;28;20112;-83
2021/09/18 03:50:30;;;;;;;14.45;8.77;;;;;;;12.48;100.00;101495.16;4973426;28;20556;-81
2021/09/18 03:52:55;;;;;;;18.83;9.57;;;;;;;12.44;100.00;101502.50;4959340;28;20039;-84
2021/09/18 03:55:21;;;;;;;15.32;9.00;;;;;;;12.44;100.00;101502.50;4990226;28;20128;-81
2021/09/18 03:57:47;;;;;;;13.10;9.35;;;;;;;12.45;100.00;101497.13;4962757;28;20556;-81
2021/09/18 04:00:13;;;;;;;12.60;9.65;;;;;;;12.46;100.00;101505.81;4963151;28;20069;-82
2021/09/18 04:02:38;;;;;;;12.38;8.85;;;;;;;12.53;100.00;101503.47;4966037;28;20053;-82
2021/09/18 04:05:05;;;;;;;11.35;8.80;;;;;;;12.47;100.00;101502.25;4993623;28;20399;-83
2021/09/18 04:07:30;;;;;;;13.70;8.80;;;;;;;12.46;100.00;101493.50;4978242;28;20030;-84
2021/09/18 04:09:56;;;;;;;12.52;8.65;;;;;;;12.53;100.00;101503.47;4981415;28;20092;-82
2021/09/18 04:12:21;;;;;;;14.57;9.98;;;;;;;12.52;100.00;101483.38;4983014;28;20065;-82
2021/09/18 04:14:47;;;;;;;17.23;10.05;;;;;;;12.56;100.00;101497.91;4998278;28;20034;-84
2021/09/18 04:17:12;;;;;;;11.57;8.63;;;;;;;12.52;100.00;101494.72;4998752;28;20484;-84
2021/09/18 04:19:38;;;;;;;13.05;9.00;;;;;;;12.50;100.00;101496.69;4968505;28;20038;-83
2021/09/18 04:22:04;;;;;;;11.20;8.57;;;;;;;12.50;100.00;101503.75;5007150;28;20068;-84
2021/09/18 04:24:30;;;;;;;10.88;8.32;;;;;;;12.47;100.00;101507.50;4996583;28;20040;-83
2021/09/18 04:26:55;;;;;;;12.55;8.18;;;;;;;12.48;100.00;101513.59;4961967;28;20032;-84
2021/09/18 04:29:21;;;;;;;10.48;8.40;;;;;;;12.49;100.00;101517.88;4960142;28;20049;-83
2021/09/18 04:31:46;;;;;;;13.05;9.30;;;;;;;12.48;100.00;101513.59;4981712;28;20064;-82
2021/09/18 04:34:12;;;;;;;14.57;9.02;;;;;;;12.48;100.00;101511.78;4968811;28;20381;-85
2021/09/18 04:36:37;;;;;;;11.48;8.18;;;;;;;12.46;100.00;101503.19;4946186;28;20054;-85
2021/09/18 04:39:03;;;;;;;14.23;9.50;;;;;;;12.53;100.00;101517.47;4982972;28;20038;-83
2021/09/18 04:41:29;;;;;;;13.65;8.52;;;;;;;12.54;100.00;101518.28;4965817;28;20038;-84
2021/09/18 04:43:55;;;;;;;14.43;8.95;;;;;;;12.56;100.00;101518.97;4981587;28;20513;-84
2021/09/18 04:46:21;;;;;;;14.35;9.27;;;;;;;12.58;100.00;101519.66;4968545;28;20049;-84
2021/09/18 04:48:47;;;;;;;12.88;8.90;;;;;;;12.58;100.00;101519.66;4997686;28;20038;-83
2021/09/18 04:51:13;;;;;;;15.30;8.50;;;;;;;12.60;100.00;101526.47;4981404;28;20558;-82
2021/09/18 04:53:38;;;;;;;12.18;8.57;;;;;;;12.60;100.00;101526.47;4981453;28;20041;-84
2021/09/18 04:56:04;;;;;;;16.27;8.63;;;;;;;12.62;100.00;101531.56;4978097;28;20045;-82
2021/09/18 04:58:30;;;;;;;12.95;8.10;;;;;;;12.61;100.00;101533.38;4974252;28;20539;-82
2021/09/18 05:00:56;;;;;;;11.25;8.48;;;;;;;12.66;100.00;101528.53;4969370;28;20804;-84
2021/09/18 05:03:22;;;;;;;16.88;9.10;;;;;;;12.65;100.00;101537.38;4978916;28;20065;-82
2021/09/18 05:05:47;;;;;;;11.93;8.50;;;;;;;12.65;100.00;101534.75;4963293;28;20096;-82
2021/09/18 05:08:14;;;;;;;11.65;7.55;;;;;;;12.61;100.00;101533.38;4956571;28;20038;-84
2021/09/18 05:10:39;;;;;;;14.52;8.50;;;;;;;12.69;100.00;101545.81;4962975;28;20038;-84
2021/09/18 05:13:05;;;;;;;12.27;8.48;;;;;;;12.67;100.00;101537.25;4995474;28;20155;-85
2021/09/18 05:15:30;;;;;;;17.45;8.77;;;;;;;12.70;100.00;101547.50;4967612;28;20088;-82
2021/09/18 05:17:56;;;;;;;12.63;8.00;;;;;;;12.75;100.00;101544.44;5009167;28;20039;-83
2021/09/18 05:20:22;;;;;;;11.90;8.85;;;;;;;12.76;100.00;101554.81;4962530;28;20451;-83
2021/09/18 05:22:48;;;;;;;11.27;8.07;;;;;;;12.73;100.00;101551.63;4964516;28;20037;-83
2021/09/18 05:25:13;;;;;;;13.95;8.70;;;;;;;12.75;100.00;101550.53;4980496;28;20049;-83
2021/09/18 05:27:39;;;;;;;10.32;8.10;;;;;;;12.82;100.00;101556.88;4964057;28;20033;-84
2021/09/18 05:30:06;;;;;;;11.85;8.18;;;;;;;12.83;100.00;101557.72;4970114;28;20396;-82
2021/09/18 05:32:32;;;;;;;11.57;8.13;;;;;;;12.83;100.00;101553.28;4964297;28;20128;-84
2021/09/18 05:34:57;;;;;;;11.63;7.97;;;;;;;12.88;100.00;101558.13;4980291;28;20595;-82
2021/09/18 05:37:23;;;;;;;12.00;8.00;;;;;;;12.92;100.00;101569.19;4967041;28;20034;-83
2021/09/18 05:39:48;;;;;;;14.27;8.27;;;;;;;12.94;100.00;101564.63;4964013;28;20042;-84
2021/09/18 05:42:15;;;;;;;11.30;7.75;;;;;;;12.95;100.00;101564.47;4996406;28;20065;-83
2021/09/18 05:44:42;;;;;;;12.77;8.55;;;;;;;13.04;100.00;101573.34;4990355;28;20191;-82
2021/09/18 05:47:07;;;;;;;10.43;8.00;;;;;;;13.09;100.00;101555.31;4996013;28;20471;-85
2021/09/18 05:49:33;;;;;;;11.48;7.97;;;;;;;13.10;100.00;101559.59;4963749;28;20061;-86
2021/09/18 05:51:58;;;;;;;12.45;8.10;;;;;;;13.11;100.00;101553.38;4964473;28;20030;-84
2021/09/18 05:54:27;;;;;;;15.02;9.30;;;;;;;13.14;100.00;101560.97;4964098;28;20030;-83
2021/09/18 05:56:53;;;;;;;10.25;8.48;;;;;;;13.16;100.00;101548.47;4995386;28;20037;-85
2021/09/18 05:59:18;;;;;;;12.82;8.38;;;;;;;13.23;100.00;101564.56;4979843;28;20042;-83
2021/09/18 06:01:44;;;;;;;10.90;7.82;;;;;;;13.27;100.00;101557.19;4975597;28;20488;-84
2021/09/18 06:04:09;;;;;;;10.95;7.45;;;;;;;13.34;100.00;101559.13;4979912;28;20148;-82
2021/09/18 06:06:35;;;;;;;12.20;8.35;;;;;;;13.47;100.00;101564.09;4991104;28;20041;-83
2021/09/18 06:09:01;;;;;;;10.38;7.55;;;;;;;13.52;100.00;101567.09;4979821;28;20041;-83
2021/09/18 06:11:26;;;;;;;13.77;8.63;;;;;;;13.52;100.00;101576.81;4979802;28;20080;-84
2021/09/18 06:13:53;;;;;;;15.98;8.00;;;;;;;13.53;100.00;101574.03;4979770;28;20104;-83
2021/09/18 06:16:19;;;;;;;9.18;6.85;;;;;;;13.54;100.00;101566.94;4978301;28;20034;-83
2021/09/18 06:18:44;;;;;;;14.25;7.38;;;;;;;13.56;100.00;101572.91;4966331;28;20534;-82
2021/09/18 06:21:10;;;;;;;9.18;7.32;;;;;;;13.61;100.00;101582.03;4963782;28;20037;-82
2021/09/18 06:23:37;;;;;;;9.90;7.15;;;;;;;13.66;100.00;101583.44;4994938;28;20038;-82
2021/09/18 06:26:04;;;;;;;13.18;7.10;;;;;;;13.66;100.00;101594.81;4995370;28;20029;-82
2021/09/18 06:28:30;;;;;;;7.53;6.45;;;;;;;13.65;100.00;101587.84;4995342;28;20034;-82
2021/09/18 06:30:55;;;;;;;7.72;6.72;;;;;;;13.71;100.00;101596.97;4968516;28;20153;-85
2021/09/18 06:33:21;;;;;;;8.60;6.80;;;;;;;13.77;100.00;101591.97;4959724;28;20030;-84
2021/09/18 06:35:47;;;;;;;10.50;6.38;;;;;;;13.81;100.00;101589.88;4975866;28;20128;-84
2021/09/18 06:38:14;;;;;;;11.32;6.55;;;;;;;13.82;100.00;101587.09;4969263;28;20084;-82
2021/09/18 06:40:40;;;;;;;8.05;6.32;;;;;;;13.87;100.00;101604.28;4978706;28;20125;-81
2021/09/18 06:43:05;;;;;;;9.30;7.00;;;;;;;13.89;100.00;101599.69;4995116;28;20136;-82
2021/09/18 06:45:31;;;;;;;10.88;6.05;;;;;;;13.98;100.00;101598.81;4990866;28;20034;-82
2021/09/18 06:47:57;;;;;;;7.90;6.45;;;;;;;14.03;100.00;101604.44;4963605;28;20448;-83
2021/09/18 06:50:23;;;;;;;8.30;6.03;;;;;;;14.09;100.00;101606.50;4970097;28;20048;-82
2021/09/18 06:52:48;;;;;;;8.80;6.10;;;;;;;14.23;100.00;101612.25;4978705;28;20087;-84
2021/09/18 06:55:14;;;;;;;8.57;5.38;;;;;;;14.19;100.00;101614.34;4995211;28;20061;-83
2021/09/18 06:57:40;;;;;;;6.65;5.15;;;;;;;14.24;100.00;101606.81;4954843;28;20036;-84
2021/09/18 07:00:07;;;;;;;8.43;5.40;;;;;;;14.38;100.00;101611.56;4977438;28;20087;-83
2021/09/18 07:02:33;;;;;;;8.10;4.82;;;;;;;14.43;100.00;101620.84;4973321;28;20552;-82
2021/09/18 07:05:00;;;;;;;6.03;4.90;;;;;;;14.46;100.00;101620.56;4994794;28;20081;-83
2021/09/18 07:07:29;;;;;;;7.28;4.38;;;;;;;14.39;100.00;101618.53;4959848;28;20030;-83
2021/09/18 07:09:56;;;;;;;7.53;4.80;;;;;;;14.41;100.00;101623.66;4985559;28;20100;-82
2021/09/18 07:12:22;;;;;;;8.75;5.30;;;;;;;14.34;100.00;101612.84;4980075;28;20095;-84
2021/09/18 07:14:48;;;;;;;10.68;4.50;;;;;;;14.30;100.00;101614.13;5011454;28;20108;-82
2021/09/18 07:17:13;;;;;;;6.10;4.50;;;;;;;14.32;100.00;101620.09;4974555;28;20034;-82
2021/09/18 07:20:01;;;;;;;4.80;4.30;;;;;;;14.18;100.00;101615.31;4982732;28;20088;-83
2021/09/18 07:22:32;;;;;;;5.78;4.22;;;;;;;14.28;100.00;101624.03;4967176;28;20053;-84
2021/09/18 07:24:58;;;;;;;5.97;4.07;;;;;;;14.45;100.00;101630.28;5015088;23;20033;-80
2021/09/18 07:27:24;;;;;;;5.38;4.03;;;;;;;14.46;100.00;101631.09;5047751;28;20029;-78
2021/09/18 07:29:51;;;;;;;8.90;4.38;;;;;;;14.60;100.00;101628.00;5048071;28;20043;-80
2021/09/18 07:32:17;;;;;;;4.30;3.90;;;;;;;14.63;100.00;101630.31;5018585;28;20033;-77
2021/09/18 07:34:43;;;;;;;4.20;3.38;;;;;;;14.71;100.00;101638.31;5016127;28;20368;-78
2021/09/18 07:37:16;;;;;;;8.38;3.03;;;;;;;14.68;100.00;101635.97;5054074;28;20029;-81
2021/09/18 07:39:42;;;;;;;4.47;2.50;;;;;;;14.80;100.00;101633.91;5027930;28;20037;-79
2021/09/18 07:42:07;;;;;;;3.47;2.97;;;;;;;14.86;100.00;101629.84;5004863;28;20390;-79
2021/09/18 07:44:33;;;;;;;4.28;2.90;;;;;;;15.07;100.00;101629.50;5021281;28;20043;-78
2021/09/18 07:47:00;;;;;;;6.40;3.20;;;;;;;15.24;100.00;101628.66;5034031;28;20021;-79
2021/09/18 07:49:26;;;;;;;5.78;2.70;;;;;;;15.21;100.00;101630.75;5013998;28;20573;-79
2021/09/18 07:51:51;;;;;;;4.55;3.22;;;;;;;15.31;100.00;101629.69;5033853;28;20028;-79
2021/09/18 07:54:17;;;;;;;5.15;2.17;;;;;;;15.33;100.00;101638.28;5015356;28;20769;-78
2021/09/18 07:56:42;;;;;;;5.25;2.15;;;;;;;15.43;100.00;101635.53;5021887;28;20033;-80
2021/09/18 07:59:08;;;;;;;3.42;2.30;;;;;;;15.54;100.00;101639.72;5020445;28;20147;-80
2021/09/18 08:01:34;;;;;;;3.22;2.20;;;;;;;15.66;100.00;101642.91;4987629;28;20037;-81
2021/09/18 08:04:03;;;;;;;4.60;2.10;;;;;;;15.86;100.00;101648.81;5000177;28;20033;-80
2021/09/18 08:06:30;;;;;;;4.63;2.00;;;;;;;15.84;100.00;101651.63;5048295;28;20045;-82
2021/09/18 08:08:56;;;;;;;2.28;2.08;;;;;;;15.82;100.00;101644.81;5017444;28;20043;-81
2021/09/18 08:11:22;;;;;;;2.70;2.10;;;;;;;15.84;100.00;101648.13;4990918;28;20029;-82
2021/09/18 08:13:50;;;;;;;7.30;2.40;;;;;;;15.82;100.00;101660.69;5022681;28;20040;-82
2021/09/18 08:16:16;;;;;;;4.18;1.75;;;;;;;15.84;100.00;101656.94;5011141;28;20156;-82
2021/09/18 08:18:42;;;;;;;5.85;1.80;;;;;;;15.84;100.00;101664.00;5019882;28;20105;-83
2021/09/18 08:21:08;;;;;;;2.40;1.50;;;;;;;15.78;100.00;101654.88;5036446;28;20398;-83
2021/09/18 08:23:33;;;;;;;2.15;1.60;;;;;;;15.83;100.00;101657.91;5031809;28;20546;-80
2021/09/18 08:25:59;;;;;;;2.08;1.50;;;;;;;15.92;100.00;101658.78;5048619;28;20110;-81
2021/09/18 08:28:24;;;;;;;4.30;1.23;;;;;;;16.18;100.00;101649.91;5013777;28;20043;-84
2021/09/18 08:30:50;;;;;;;2.10;1.45;;;;;;;16.07;100.00;101640.47;5041692;28;20032;-84
2021/09/18 08:33:15;;;;;;;5.72;1.42;;;;;;;16.21;100.00;101665.47;5052676;28;20033;-83
2021/09/18 08:35:41;;;;;;;1.38;1.10;;;;;;;16.26;100.00;101664.00;4997084;28;20531;-81
2021/09/18 08:38:07;;;;;;;2.33;0.85;;;;;;;16.41;100.00;101669.50;5017940;28;20517;-80
2021/09/18 08:40:37;;;;;;;2.90;1.00;;;;;;;16.44;99.19;101669.16;5021017;28;20166;-81
2021/09/18 08:43:03;;;;;;;4.43;1.00;;;;;;;16.50;100.00;101673.81;5015396;28;20116;-82
2021/09/18 08:45:28;;;;;;;1.55;1.10;;;;;;;16.60;100.00;101678.16;5015263;28;20041;-81
2021/09/18 08:47:54;;;;;;;3.55;0.90;;;;;;;16.83;97.95;101675.72;5044788;28;20033;-80
2021/09/18 08:50:21;;;;;;;2.25;1.10;;;;;;;17.04;97.63;101677.88;5037135;28;20048;-81
2021/09/18 08:52:48;;;;;;;3.55;1.00;;;;;;;16.97;96.00;101687.47;5018615;28;20095;-82
2021/09/18 08:55:15;;;;;;;3.80;1.05;;;;;;;16.77;97.27;101686.94;5024340;28;20124;-81
2021/09/18 08:57:41;;;;;;;1.38;0.80;;;;;;;16.73;97.46;101687.25;5024408;28;20037;-81
2021/09/18 09:00:09;;;;;;;0.88;0.70;;;;;;;16.68;97.55;101688.75;5026514;28;20039;-81
2021/09/18 09:02:37;;;;;;;3.53;0.77;;;;;;;16.74;98.25;101693.38;5047592;28;20082;-83
2021/09/18 09:05:06;;;;;;;2.90;0.90;;;;;;;16.70;100.00;101692.88;5013948;28;20051;-81
2021/09/18 09:07:32;;;;;;;1.23;0.70;;;;;;;16.69;98.02;101695.72;5026644;28;20033;-80
2021/09/18 09:10:02;;;;;;;1.30;0.82;;;;;;;16.40;100.00;101678.44;5018020;28;20136;-81
2021/09/18 09:12:35;;;;;;;2.03;0.88;;;;;;;16.35;99.23;101700.09;5012177;28;20029;-82
2021/09/18 09:15:07;;;;;;;1.45;1.00;;;;;;;16.12;100.00;101696.38;5002503;28;20029;-82
2021/09/18 09:17:36;;;;;;;1.25;0.50;;;;;;;15.98;100.00;101686.41;5014810;28;20044;-82
2021/09/18 09:20:04;;;;;;;1.35;0.60;;;;;;;15.84;100.00;101703.69;5049214;28;20769;-80
2021/09/18 09:22:42;;;;;;;1.05;0.63;;;;;;;15.72;100.00;101693.34;5030238;28;20041;-78
2021/09/18 09:25:30;;;;;;;4.55;0.80;;;;;;;15.68;100.00;101689.38;5016135;28;20103;-82
2021/09/18 09:27:57;;;;;;;2.28;0.55;;;;;;;15.66;100.00;101686.06;5041789;28;20171;-82
2021/09/18 09:30:29;;;;;;;3.90;0.75;;;;;;;15.62;100.00;101683.88;5023469;28;20041;-80
2021/09/18 09:32:54;;;;;;;2.83;0.80;;;;;;;15.74;100.00;101696.69;5026572;28;20522;-82
2021/09/18 09:35:20;;;;;;;2.17;0.50;;;;;;;15.72;100.00;101696.00;4982794;28;20034;-81
2021/09/18 09:37:53;;;;;;;1.25;0.60;;;;;;;15.76;100.00;101693.91;4994326;28;20040;-80
2021/09/18 09:40:50;;;;;;;2.88;0.70;;;;;;;15.89;100.00;101710.16;5026154;28;20044;-81
2021/09/18 09:43:18;;;;;;;0.65;0.65;;;;;;;15.99;100.00;101717.97;5045388;28;20056;-81
2021/09/18 09:45:45;;;;;;;0.82;0.73;;;;;;;16.06;100.00;101711.06;5048627;28;20025;-79
2021/09/18 09:48:22;;;;;;;2.88;0.70;;;;;;;16.29;100.00;101721.09;5005214;28;20025;-83
2021/09/18 09:51:01;;;;;;;0.70;0.60;;;;;;;16.37;100.00;101702.59;5022615;28;20029;-79
2021/09/18 09:53:27;;;;;;;1.23;0.60;;;;;;;16.44;100.00;101713.34;5010783;28;20475;-82
2021/09/18 09:55:53;;;;;;;2.25;0.60;;;;;;;16.54;100.00;101712.22;5011627;28;20119;-81
2021/09/18 09:58:19;;;;;;;0.95;0.65;;;;;;;16.43;98.95;101715.19;5015967;28;20124;-80
2021/09/18 10:00:51;;;;;;;4.78;0.77;;;;;;;16.63;100.00;101722.84;4997255;28;20075;-80
2021/09/18 10:03:22;;;;;;;0.82;0.60;;;;;;;16.70;98.80;101721.19;5011947;28;20451;-81
2021/09/18 10:05:50;;;;;;;5.80;0.63;;;;;;;16.71;100.00;101726.34;5026255;28;20036;-83
2021/09/18 10:08:20;;;;;;;1.05;0.60;;;;;;;16.72;100.00;101714.72;5031125;28;20422;-82
2021/09/18 10:10:46;;;;;;;3.83;0.60;;;;;;;16.68;98.27;101721.34;5031297;28;20033;-81
2021/09/18 10:13:13;;;;;;;1.42;0.70;;;;;;;16.63;99.04;101706.94;5052301;28;20419;-82
2021/09/18 10:15:39;;;;;;;2.13;0.70;;;;;;;16.64;98.29;101721.84;5030290;28;20570;-80
2021/09/18 10:18:29;;;;;;;1.38;0.93;;;;;;;16.71;96.48;101709.63;5021160;28;20061;-81
2021/09/18 10:23:58;;;;;;;2.05;0.40;;;;;;;16.67;97.22;101714.41;5024887;28;20083;-82
2021/09/18 10:26:26;;;;;;;0.57;0.47;;;;;;;16.64;97.86;101713.91;5009752;28;20033;-82
2021/09/18 10:28:52;;;;;;;0.85;0.40;;;;;;;16.68;98.13;101718.69;5023109;28;20079;-83
2021/09/18 10:31:21;;;;;;;1.75;0.40;;;;;;;16.60;98.76;101715.22;5012812;28;20063;-82
2021/09/18 10:33:49;;;;;;;0.60;0.30;;;;;;;16.47;99.74;101713.88;5009233;28;20098;-80
2021/09/18 10:36:20;;;;;;;0.30;0.30;;;;;;;16.59;100.00;101713.56;5043321;28;20041;-79
2021/09/18 10:39:09;;;;;;;0.40;0.40;;;;;;;16.57;98.93;101718.19;5024177;28;20044;-82
2021/09/18 10:41:50;;;;;;;1.27;0.50;;;;;;;16.55;99.76;101713.06;5015677;28;20041;-79
2021/09/18 10:44:18;;;;;;;0.82;0.50;;;;;;;16.40;100.00;101707.53;5023908;28;20045;-81
2021/09/18 10:46:50;;;;;;;1.77;0.40;;;;;;;16.32;100.00;101721.59;5025982;28;20063;-81
2021/09/18 10:49:34;;;;;;;2.67;0.60;;;;;;;16.06;100.00;101720.84;5022279;28;20039;-85
2021/09/18 10:52:19;;;;;;;1.48;0.40;;;;;;;15.81;100.00;101723.34;5021148;28;20430;-80
2021/09/18 10:57:42;;;;;;;1.35;0.52;;;;;;;15.72;100.00;101727.72;5097688;27;20405;-77
2021/09/18 11:00:41;;;;;;;0.43;0.43;;;;;;;15.62;100.00;101712.97;5045381;28;20393;-75
2021/09/18 11:03:37;;;;;;;2.45;0.70;;;;;;;15.73;100.00;101720.66;5048350;28;20753;-75
2021/09/18 11:06:36;;;;;;;1.83;0.60;;;;;;;15.70;100.00;101740.28;5063278;28;20884;-75
2021/09/18 11:09:12;;;;;;;1.35;0.47;;;;;;;15.47;100.00;101739.16;5063090;28;20383;-76
2021/09/18 11:12:12;;;;;;;0.55;0.30;;;;;;;15.26;100.00;101739.50;5061218;28;20503;-77
2021/09/18 11:15:05;;;;;;;0.88;0.30;;;;;;;15.19;100.00;101740.09;5061560;28;20986;-78
2021/09/18 11:17:43;;;;;;;2.97;0.40;;;;;;;15.17;100.00;101743.88;5042846;28;20400;-79
2021/09/18 11:20:21;;;;;;;1.10;0.38;;;;;;;15.07;100.00;101733.38;5064002;28;20384;-75
2021/09/18 11:23:06;;;;;;;0.77;0.60;;;;;;;15.36;100.00;101740.22;5060405;28;20403;-74